sensor_id;sensor_type;location;lat;lon;timestamp;P1;durP1;ratioP1;P2;durP2;ratioP2
16784;SDS011;8509;52.178;5.404;2023-04-03T00:02:13;0.30;;;0.30;;
16784;SDS011;8509;52.178;5.404;2023-04-03T00:04:39;0.30;;;0.30;;
16784;SDS011;8509;52.178;5.404;2023-04-03T00:07:05;0.30;;;0.30;;
16784;SDS011;8509;52.178;5.404;2023-04-03T00:09:31;0.30;;;0.30;;
16784;SDS011;8509;52.178;5.404;2023-04-03T00:11:57;0.30;;;0.30;;
16784;SDS011;8509;52.178;5.404;2023-04-03T00:14:23;0.30;;;0.30;;
16784;SDS011;8509;52.178;5.404;2023-04-03T00:16:49;0.20;;;0.20;;
16784;SDS011;8509;52.178;5.404;2023-04-03T00:19:15;0.30;;;0.30;;
16784;SDS011;8509;52.178;5.404;2023-04-03T00:21:41;0.20;;;0.20;;
16784;SDS011;8509;52.178;5.404;2023-04-03T00:24:07;0.30;;;0.30;;
16784;SDS011;8509;52.178;5.404;2023-04-03T00:26:33;0.20;;;0.20;;
16784;SDS011;8509;52.178;5.404;2023-04-03T00:28:59;0.30;;;0.30;;
16784;SDS011;8509;52.178;5.404;2023-04-03T00:31:25;0.30;;;0.30;;
16784;SDS011;8509;52.178;5.404;2023-04-03T00:33:51;0.20;;;0.20;;
16784;SDS011;8509;52.178;5.404;2023-04-03T00:36:17;0.20;;;0.20;;
16784;SDS011;8509;52.178;5.404;2023-04-03T00:38:44;0.20;;;0.20;;
16784;SDS011;8509;52.178;5.404;2023-04-03T00:41:10;0.30;;;0.30;;
16784;SDS011;8509;52.178;5.404;2023-04-03T00:43:36;0.20;;;0.20;;
16784;SDS011;8509;52.178;5.404;2023-04-03T00:46:02;0.30;;;0.30;;
16784;SDS011;8509;52.178;5.404;2023-04-03T00:48:31;0.20;;;0.20;;
16784;SDS011;8509;52.178;5.404;2023-04-03T00:50:58;0.30;;;0.30;;
16784;SDS011;8509;52.178;5.404;2023-04-03T00:53:26;0.30;;;0.30;;
16784;SDS011;8509;52.178;5.404;2023-04-03T00:55:53;0.30;;;0.30;;
16784;SDS011;8509;52.178;5.404;2023-04-03T00:58:20;0.20;;;0.20;;
16784;SDS011;8509;52.178;5.404;2023-04-03T01:00:50;0.20;;;0.20;;
16784;SDS011;8509;52.178;5.404;2023-04-03T01:03:21;0.30;;;0.30;;
16784;SDS011;8509;52.178;5.404;2023-04-03T01:05:47;0.20;;;0.20;;
16784;SDS011;8509;52.178;5.404;2023-04-03T01:08:13;0.30;;;0.30;;
16784;SDS011;8509;52.178;5.404;2023-04-03T01:10:39;0.30;;;0.30;;
16784;SDS011;8509;52.178;5.404;2023-04-03T01:13:22;0.20;;;0.20;;
16784;SDS011;8509;52.178;5.404;2023-04-03T01:15:48;0.30;;;0.30;;
16784;SDS011;8509;52.178;5.404;2023-04-03T01:18:14;0.30;;;0.30;;
16784;SDS011;8509;52.178;5.404;2023-04-03T01:26:11;0.37;;;0.37;;
16784;SDS011;8509;52.178;5.404;2023-04-03T01:28:37;0.30;;;0.30;;
16784;SDS011;8509;52.178;5.404;2023-04-03T01:33:47;0.30;;;0.30;;
16784;SDS011;8509;52.178;5.404;2023-04-03T01:36:21;0.30;;;0.30;;
16784;SDS011;8509;52.178;5.404;2023-04-03T01:38:49;0.20;;;0.20;;
16784;SDS011;8509;52.178;5.404;2023-04-03T01:41:15;0.20;;;0.20;;
16784;SDS011;8509;52.178;5.404;2023-04-03T01:43:41;0.30;;;0.30;;
16784;SDS011;8509;52.178;5.404;2023-04-03T01:46:07;0.20;;;0.20;;
16784;SDS011;8509;52.178;5.404;2023-04-03T01:48:34;0.30;;;0.30;;
16784;SDS011;8509;52.178;5.404;2023-04-03T01:51:00;0.30;;;0.30;;
16784;SDS011;8509;52.178;5.404;2023-04-03T01:53:26;0.20;;;0.20;;
16784;SDS011;8509;52.178;5.404;2023-04-03T01:55:53;0.30;;;0.30;;
16784;SDS011;8509;52.178;5.404;2023-04-03T01:58:19;0.30;;;0.30;;
16784;SDS011;8509;52.178;5.404;2023-04-03T02:00:45;0.20;;;0.20;;
16784;SDS011;8509;52.178;5.404;2023-04-03T02:03:11;0.30;;;0.30;;
16784;SDS011;8509;52.178;5.404;2023-04-03T02:05:37;0.30;;;0.30;;
16784;SDS011;8509;52.178;5.404;2023-04-03T02:08:03;0.30;;;0.30;;
16784;SDS011;8509;52.178;5.404;2023-04-03T02:10:29;0.30;;;0.30;;
16784;SDS011;8509;52.178;5.404;2023-04-03T02:12:55;0.30;;;0.30;;
16784;SDS011;8509;52.178;5.404;2023-04-03T02:15:21;0.20;;;0.20;;
16784;SDS011;8509;52.178;5.404;2023-04-03T02:17:47;0.20;;;0.20;;
16784;SDS011;8509;52.178;5.404;2023-04-03T02:20:13;0.20;;;0.20;;
16784;SDS011;8509;52.178;5.404;2023-04-03T02:22:40;0.20;;;0.20;;
16784;SDS011;8509;52.178;5.404;2023-04-03T02:25:06;0.30;;;0.30;;
16784;SDS011;8509;52.178;5.404;2023-04-03T02:27:32;0.30;;;0.30;;
16784;SDS011;8509;52.178;5.404;2023-04-03T02:29:58;0.20;;;0.20;;
16784;SDS011;8509;52.178;5.404;2023-04-03T02:32:24;0.30;;;0.30;;
16784;SDS011;8509;52.178;5.404;2023-04-03T02:34:50;0.20;;;0.20;;
16784;SDS011;8509;52.178;5.404;2023-04-03T02:37:16;0.30;;;0.30;;
16784;SDS011;8509;52.178;5.404;2023-04-03T02:39:42;0.30;;;0.30;;
16784;SDS011;8509;52.178;5.404;2023-04-03T02:42:08;0.30;;;0.30;;
16784;SDS011;8509;52.178;5.404;2023-04-03T02:44:34;0.30;;;0.30;;
16784;SDS011;8509;52.178;5.404;2023-04-03T02:47:00;0.20;;;0.20;;
16784;SDS011;8509;52.178;5.404;2023-04-03T02:49:27;0.30;;;0.30;;
16784;SDS011;8509;52.178;5.404;2023-04-03T02:51:53;0.30;;;0.30;;
16784;SDS011;8509;52.178;5.404;2023-04-03T02:54:19;0.20;;;0.20;;
16784;SDS011;8509;52.178;5.404;2023-04-03T02:56:47;0.20;;;0.20;;
16784;SDS011;8509;52.178;5.404;2023-04-03T02:59:13;0.30;;;0.30;;
16784;SDS011;8509;52.178;5.404;2023-04-03T03:01:39;0.30;;;0.30;;
16784;SDS011;8509;52.178;5.404;2023-04-03T03:04:05;0.20;;;0.20;;
16784;SDS011;8509;52.178;5.404;2023-04-03T03:06:31;0.30;;;0.30;;
16784;SDS011;8509;52.178;5.404;2023-04-03T03:08:57;0.30;;;0.30;;
16784;SDS011;8509;52.178;5.404;2023-04-03T03:11:23;0.30;;;0.30;;
16784;SDS011;8509;52.178;5.404;2023-04-03T03:13:50;0.20;;;0.20;;
16784;SDS011;8509;52.178;5.404;2023-04-03T03:16:16;0.20;;;0.20;;
16784;SDS011;8509;52.178;5.404;2023-04-03T03:18:42;0.30;;;0.30;;
16784;SDS011;8509;52.178;5.404;2023-04-03T03:21:08;0.30;;;0.30;;
16784;SDS011;8509;52.178;5.404;2023-04-03T03:23:35;0.20;;;0.20;;
16784;SDS011;8509;52.178;5.404;2023-04-03T03:26:03;0.40;;;0.40;;
16784;SDS011;8509;52.178;5.404;2023-04-03T03:28:29;0.30;;;0.30;;
16784;SDS011;8509;52.178;5.404;2023-04-03T03:30:56;0.30;;;0.30;;
16784;SDS011;8509;52.178;5.404;2023-04-03T03:33:22;0.30;;;0.30;;
16784;SDS011;8509;52.178;5.404;2023-04-03T03:35:48;0.30;;;0.30;;
16784;SDS011;8509;52.178;5.404;2023-04-03T03:38:14;0.30;;;0.30;;
16784;SDS011;8509;52.178;5.404;2023-04-03T03:40:40;0.30;;;0.30;;
16784;SDS011;8509;52.178;5.404;2023-04-03T03:43:06;0.20;;;0.20;;
16784;SDS011;8509;52.178;5.404;2023-04-03T03:45:32;0.30;;;0.30;;
16784;SDS011;8509;52.178;5.404;2023-04-03T03:47:58;0.30;;;0.30;;
16784;SDS011;8509;52.178;5.404;2023-04-03T03:50:25;0.20;;;0.20;;
16784;SDS011;8509;52.178;5.404;2023-04-03T03:52:51;0.30;;;0.30;;
16784;SDS011;8509;52.178;5.404;2023-04-03T03:55:17;0.30;;;0.30;;
16784;SDS011;8509;52.178;5.404;2023-04-03T03:57:43;0.30;;;0.30;;
16784;SDS011;8509;52.178;5.404;2023-04-03T04:00:09;0.30;;;0.30;;
16784;SDS011;8509;52.178;5.404;2023-04-03T04:02:35;0.30;;;0.30;;
16784;SDS011;8509;52.178;5.404;2023-04-03T04:05:01;0.30;;;0.30;;
16784;SDS011;8509;52.178;5.404;2023-04-03T04:07:27;0.27;;;0.27;;
16784;SDS011;8509;52.178;5.404;2023-04-03T04:09:54;0.20;;;0.20;;
16784;SDS011;8509;52.178;5.404;2023-04-03T04:12:20;0.30;;;0.30;;
16784;SDS011;8509;52.178;5.404;2023-04-03T04:14:46;0.20;;;0.20;;
16784;SDS011;8509;52.178;5.404;2023-04-03T04:17:13;0.30;;;0.30;;
16784;SDS011;8509;52.178;5.404;2023-04-03T04:19:39;0.20;;;0.20;;
16784;SDS011;8509;52.178;5.404;2023-04-03T04:22:05;0.30;;;0.30;;
16784;SDS011;8509;52.178;5.404;2023-04-03T04:24:31;0.30;;;0.30;;
16784;SDS011;8509;52.178;5.404;2023-04-03T04:26:57;0.20;;;0.20;;
16784;SDS011;8509;52.178;5.404;2023-04-03T04:29:23;0.20;;;0.20;;
16784;SDS011;8509;52.178;5.404;2023-04-03T04:31:49;0.30;;;0.30;;
16784;SDS011;8509;52.178;5.404;2023-04-03T04:34:15;0.30;;;0.30;;
16784;SDS011;8509;52.178;5.404;2023-04-03T04:36:41;0.40;;;0.40;;
16784;SDS011;8509;52.178;5.404;2023-04-03T04:39:07;0.30;;;0.30;;
16784;SDS011;8509;52.178;5.404;2023-04-03T04:41:33;0.30;;;0.30;;
16784;SDS011;8509;52.178;5.404;2023-04-03T04:43:59;0.30;;;0.30;;
16784;SDS011;8509;52.178;5.404;2023-04-03T04:46:25;0.30;;;0.30;;
16784;SDS011;8509;52.178;5.404;2023-04-03T04:48:52;0.30;;;0.30;;
16784;SDS011;8509;52.178;5.404;2023-04-03T04:51:18;0.30;;;0.30;;
16784;SDS011;8509;52.178;5.404;2023-04-03T04:53:44;0.30;;;0.30;;
16784;SDS011;8509;52.178;5.404;2023-04-03T04:56:10;0.30;;;0.30;;
16784;SDS011;8509;52.178;5.404;2023-04-03T04:58:36;0.30;;;0.30;;
16784;SDS011;8509;52.178;5.404;2023-04-03T05:01:06;0.30;;;0.30;;
16784;SDS011;8509;52.178;5.404;2023-04-03T05:03:32;0.30;;;0.30;;
16784;SDS011;8509;52.178;5.404;2023-04-03T05:05:59;0.30;;;0.30;;
16784;SDS011;8509;52.178;5.404;2023-04-03T05:08:25;0.20;;;0.20;;
16784;SDS011;8509;52.178;5.404;2023-04-03T05:10:51;0.30;;;0.30;;
16784;SDS011;8509;52.178;5.404;2023-04-03T05:13:18;0.30;;;0.30;;
16784;SDS011;8509;52.178;5.404;2023-04-03T05:15:44;0.30;;;0.30;;
16784;SDS011;8509;52.178;5.404;2023-04-03T05:18:10;0.30;;;0.30;;
16784;SDS011;8509;52.178;5.404;2023-04-03T05:20:36;0.20;;;0.20;;
16784;SDS011;8509;52.178;5.404;2023-04-03T05:23:03;0.30;;;0.30;;
16784;SDS011;8509;52.178;5.404;2023-04-03T05:25:29;0.30;;;0.30;;
16784;SDS011;8509;52.178;5.404;2023-04-03T05:27:55;0.30;;;0.30;;
16784;SDS011;8509;52.178;5.404;2023-04-03T05:30:21;0.30;;;0.30;;
16784;SDS011;8509;52.178;5.404;2023-04-03T05:32:47;0.30;;;0.30;;
16784;SDS011;8509;52.178;5.404;2023-04-03T05:35:13;0.30;;;0.30;;
16784;SDS011;8509;52.178;5.404;2023-04-03T05:37:39;0.20;;;0.20;;
16784;SDS011;8509;52.178;5.404;2023-04-03T05:40:06;0.20;;;0.20;;
16784;SDS011;8509;52.178;5.404;2023-04-03T05:42:32;0.30;;;0.30;;
16784;SDS011;8509;52.178;5.404;2023-04-03T05:44:58;0.20;;;0.20;;
16784;SDS011;8509;52.178;5.404;2023-04-03T05:47:24;0.30;;;0.30;;
16784;SDS011;8509;52.178;5.404;2023-04-03T05:49:50;0.30;;;0.30;;
16784;SDS011;8509;52.178;5.404;2023-04-03T05:52:26;0.20;;;0.20;;
16784;SDS011;8509;52.178;5.404;2023-04-03T05:54:52;0.30;;;0.30;;
16784;SDS011;8509;52.178;5.404;2023-04-03T05:57:19;0.20;;;0.20;;
16784;SDS011;8509;52.178;5.404;2023-04-03T05:59:45;0.30;;;0.30;;
16784;SDS011;8509;52.178;5.404;2023-04-03T06:02:20;0.30;;;0.30;;
16784;SDS011;8509;52.178;5.404;2023-04-03T06:04:47;0.20;;;0.20;;
16784;SDS011;8509;52.178;5.404;2023-04-03T06:07:17;0.30;;;0.30;;
16784;SDS011;8509;52.178;5.404;2023-04-03T06:09:44;0.20;;;0.20;;
16784;SDS011;8509;52.178;5.404;2023-04-03T06:12:10;0.20;;;0.20;;
16784;SDS011;8509;52.178;5.404;2023-04-03T06:14:36;0.30;;;0.30;;
16784;SDS011;8509;52.178;5.404;2023-04-03T06:17:02;0.30;;;0.30;;
16784;SDS011;8509;52.178;5.404;2023-04-03T06:19:29;0.30;;;0.30;;
16784;SDS011;8509;52.178;5.404;2023-04-03T06:21:56;0.30;;;0.30;;
16784;SDS011;8509;52.178;5.404;2023-04-03T06:24:22;0.20;;;0.20;;
16784;SDS011;8509;52.178;5.404;2023-04-03T06:26:49;0.30;;;0.30;;
16784;SDS011;8509;52.178;5.404;2023-04-03T06:29:16;0.30;;;0.30;;
16784;SDS011;8509;52.178;5.404;2023-04-03T06:31:42;0.30;;;0.30;;
16784;SDS011;8509;52.178;5.404;2023-04-03T06:34:08;0.20;;;0.20;;
16784;SDS011;8509;52.178;5.404;2023-04-03T06:36:36;0.20;;;0.20;;
16784;SDS011;8509;52.178;5.404;2023-04-03T06:39:02;0.20;;;0.20;;
16784;SDS011;8509;52.178;5.404;2023-04-03T06:41:28;0.20;;;0.20;;
16784;SDS011;8509;52.178;5.404;2023-04-03T06:43:55;0.20;;;0.20;;
16784;SDS011;8509;52.178;5.404;2023-04-03T06:46:23;0.20;;;0.20;;
16784;SDS011;8509;52.178;5.404;2023-04-03T06:48:49;0.20;;;0.20;;
16784;SDS011;8509;52.178;5.404;2023-04-03T06:51:23;0.10;;;0.10;;
16784;SDS011;8509;52.178;5.404;2023-04-03T06:53:50;0.10;;;0.10;;
16784;SDS011;8509;52.178;5.404;2023-04-03T06:56:16;0.20;;;0.20;;
16784;SDS011;8509;52.178;5.404;2023-04-03T06:58:43;0.10;;;0.10;;
16784;SDS011;8509;52.178;5.404;2023-04-03T07:01:10;0.10;;;0.10;;
16784;SDS011;8509;52.178;5.404;2023-04-03T07:03:37;0.10;;;0.10;;
16784;SDS011;8509;52.178;5.404;2023-04-03T07:06:03;0.10;;;0.10;;
16784;SDS011;8509;52.178;5.404;2023-04-03T07:08:30;0.20;;;0.20;;
16784;SDS011;8509;52.178;5.404;2023-04-03T07:10:56;0.20;;;0.20;;
16784;SDS011;8509;52.178;5.404;2023-04-03T07:13:23;0.20;;;0.20;;
16784;SDS011;8509;52.178;5.404;2023-04-03T07:15:49;0.13;;;0.13;;
16784;SDS011;8509;52.178;5.404;2023-04-03T07:18:15;0.10;;;0.10;;
16784;SDS011;8509;52.178;5.404;2023-04-03T07:20:42;0.10;;;0.10;;
16784;SDS011;8509;52.178;5.404;2023-04-03T07:23:08;0.10;;;0.10;;
16784;SDS011;8509;52.178;5.404;2023-04-03T07:25:35;0.20;;;0.20;;
16784;SDS011;8509;52.178;5.404;2023-04-03T07:28:01;0.10;;;0.10;;
16784;SDS011;8509;52.178;5.404;2023-04-03T07:30:27;0.10;;;0.10;;
16784;SDS011;8509;52.178;5.404;2023-04-03T07:32:53;0.10;;;0.10;;
16784;SDS011;8509;52.178;5.404;2023-04-03T07:35:20;0.10;;;0.10;;
16784;SDS011;8509;52.178;5.404;2023-04-03T07:37:46;0.10;;;0.10;;
16784;SDS011;8509;52.178;5.404;2023-04-03T07:40:12;0.10;;;0.10;;
16784;SDS011;8509;52.178;5.404;2023-04-03T07:42:38;0.20;;;0.20;;
16784;SDS011;8509;52.178;5.404;2023-04-03T07:45:04;0.10;;;0.10;;
16784;SDS011;8509;52.178;5.404;2023-04-03T07:47:30;0.10;;;0.10;;
16784;SDS011;8509;52.178;5.404;2023-04-03T07:49:56;0.10;;;0.10;;
16784;SDS011;8509;52.178;5.404;2023-04-03T07:52:23;0.20;;;0.20;;
16784;SDS011;8509;52.178;5.404;2023-04-03T07:54:49;0.10;;;0.10;;
16784;SDS011;8509;52.178;5.404;2023-04-03T07:57:15;0.10;;;0.10;;
16784;SDS011;8509;52.178;5.404;2023-04-03T07:59:41;0.10;;;0.10;;
16784;SDS011;8509;52.178;5.404;2023-04-03T08:02:11;0.10;;;0.10;;
16784;SDS011;8509;52.178;5.404;2023-04-03T08:04:37;0.15;;;0.15;;
16784;SDS011;8509;52.178;5.404;2023-04-03T08:07:04;0.10;;;0.10;;
16784;SDS011;8509;52.178;5.404;2023-04-03T08:09:30;0.10;;;0.10;;
16784;SDS011;8509;52.178;5.404;2023-04-03T08:11:57;0.10;;;0.10;;
16784;SDS011;8509;52.178;5.404;2023-04-03T08:14:23;0.10;;;0.10;;
16784;SDS011;8509;52.178;5.404;2023-04-03T08:16:50;0.10;;;0.10;;
16784;SDS011;8509;52.178;5.404;2023-04-03T08:19:16;0.10;;;0.10;;
16784;SDS011;8509;52.178;5.404;2023-04-03T08:21:43;0.10;;;0.10;;
16784;SDS011;8509;52.178;5.404;2023-04-03T08:24:10;0.10;;;0.10;;
16784;SDS011;8509;52.178;5.404;2023-04-03T08:26:37;0.10;;;0.10;;
16784;SDS011;8509;52.178;5.404;2023-04-03T08:29:03;0.10;;;0.10;;
16784;SDS011;8509;52.178;5.404;2023-04-03T08:31:29;0.10;;;0.10;;
16784;SDS011;8509;52.178;5.404;2023-04-03T08:33:56;0.10;;;0.10;;
16784;SDS011;8509;52.178;5.404;2023-04-03T08:36:23;0.10;;;0.10;;
16784;SDS011;8509;52.178;5.404;2023-04-03T08:38:51;0.10;;;0.10;;
16784;SDS011;8509;52.178;5.404;2023-04-03T08:41:29;0.10;;;0.10;;
16784;SDS011;8509;52.178;5.404;2023-04-03T08:49:23;0.20;;;0.20;;
16784;SDS011;8509;52.178;5.404;2023-04-03T08:51:49;0.10;;;0.10;;
16784;SDS011;8509;52.178;5.404;2023-04-03T08:54:27;0.10;;;0.10;;
16784;SDS011;8509;52.178;5.404;2023-04-03T08:56:54;0.10;;;0.10;;
16784;SDS011;8509;52.178;5.404;2023-04-03T08:59:25;0.10;;;0.10;;
16784;SDS011;8509;52.178;5.404;2023-04-03T09:01:52;0.10;;;0.10;;
16784;SDS011;8509;52.178;5.404;2023-04-03T09:04:18;0.10;;;0.10;;
16784;SDS011;8509;52.178;5.404;2023-04-03T09:06:55;0.10;;;0.10;;
16784;SDS011;8509;52.178;5.404;2023-04-03T09:09:36;0.10;;;0.10;;
16784;SDS011;8509;52.178;5.404;2023-04-03T09:12:17;0.10;;;0.10;;
16784;SDS011;8509;52.178;5.404;2023-04-03T09:17:27;0.10;;;0.10;;
16784;SDS011;8509;52.178;5.404;2023-04-03T09:22:28;0.10;;;0.10;;
16784;SDS011;8509;52.178;5.404;2023-04-03T09:27:41;0.10;;;0.10;;
16784;SDS011;8509;52.178;5.404;2023-04-03T09:30:12;0.10;;;0.10;;
16784;SDS011;8509;52.178;5.404;2023-04-03T09:32:39;0.10;;;0.10;;
16784;SDS011;8509;52.178;5.404;2023-04-03T09:37:50;0.10;;;0.10;;
16784;SDS011;8509;52.178;5.404;2023-04-03T09:42:53;0.10;;;0.10;;
16784;SDS011;8509;52.178;5.404;2023-04-03T09:45:24;0.20;;;0.20;;
16784;SDS011;8509;52.178;5.404;2023-04-03T09:48:25;0.20;;;0.20;;
16784;SDS011;8509;52.178;5.404;2023-04-03T09:53:37;0.10;;;0.10;;
16784;SDS011;8509;52.178;5.404;2023-04-03T09:58:42;0.20;;;0.20;;
16784;SDS011;8509;52.178;5.404;2023-04-03T10:01:31;0.10;;;0.10;;
16784;SDS011;8509;52.178;5.404;2023-04-03T10:04:15;0.10;;;0.10;;
16784;SDS011;8509;52.178;5.404;2023-04-03T10:06:45;0.20;;;0.20;;
16784;SDS011;8509;52.178;5.404;2023-04-03T10:11:56;0.13;;;0.13;;
16784;SDS011;8509;52.178;5.404;2023-04-03T10:14:22;0.10;;;0.10;;
16784;SDS011;8509;52.178;5.404;2023-04-03T10:16:53;0.10;;;0.10;;
16784;SDS011;8509;52.178;5.404;2023-04-03T10:21:50;0.20;;;0.20;;
16784;SDS011;8509;52.178;5.404;2023-04-03T10:32:15;0.10;;;0.10;;
16784;SDS011;8509;52.178;5.404;2023-04-03T10:34:44;0.20;;;0.20;;
16784;SDS011;8509;52.178;5.404;2023-04-03T10:40:08;0.20;;;0.20;;
16784;SDS011;8509;52.178;5.404;2023-04-03T10:57:54;0.10;;;0.10;;
16784;SDS011;8509;52.178;5.404;2023-04-03T11:00:28;0.20;;;0.20;;
16784;SDS011;8509;52.178;5.404;2023-04-03T11:08:02;0.20;;;0.20;;
16784;SDS011;8509;52.178;5.404;2023-04-03T11:10:35;0.10;;;0.10;;
16784;SDS011;8509;52.178;5.404;2023-04-03T11:13:04;0.10;;;0.10;;
16784;SDS011;8509;52.178;5.404;2023-04-03T11:15:32;0.10;;;0.10;;
16784;SDS011;8509;52.178;5.404;2023-04-03T11:18:00;0.10;;;0.10;;
16784;SDS011;8509;52.178;5.404;2023-04-03T11:20:31;0.10;;;0.10;;
16784;SDS011;8509;52.178;5.404;2023-04-03T11:25:25;0.10;;;0.10;;
16784;SDS011;8509;52.178;5.404;2023-04-03T11:28:01;0.20;;;0.20;;
16784;SDS011;8509;52.178;5.404;2023-04-03T11:30:33;0.20;;;0.20;;
16784;SDS011;8509;52.178;5.404;2023-04-03T11:35:49;0.10;;;0.10;;
16784;SDS011;8509;52.178;5.404;2023-04-03T11:38:18;0.10;;;0.10;;
16784;SDS011;8509;52.178;5.404;2023-04-03T11:40:45;0.10;;;0.10;;
16784;SDS011;8509;52.178;5.404;2023-04-03T11:43:23;0.10;;;0.10;;
16784;SDS011;8509;52.178;5.404;2023-04-03T11:46:04;0.20;;;0.20;;
16784;SDS011;8509;52.178;5.404;2023-04-03T11:51:40;0.10;;;0.10;;
16784;SDS011;8509;52.178;5.404;2023-04-03T11:53:47;0.20;;;0.20;;
16784;SDS011;8509;52.178;5.404;2023-04-03T12:04:16;0.20;;;0.20;;
16784;SDS011;8509;52.178;5.404;2023-04-03T12:09:29;0.20;;;0.20;;
16784;SDS011;8509;52.178;5.404;2023-04-03T12:11:56;0.20;;;0.20;;
16784;SDS011;8509;52.178;5.404;2023-04-03T12:14:23;0.10;;;0.10;;
16784;SDS011;8509;52.178;5.404;2023-04-03T12:16:53;0.10;;;0.10;;
16784;SDS011;8509;52.178;5.404;2023-04-03T12:19:32;0.10;;;0.10;;
16784;SDS011;8509;52.178;5.404;2023-04-03T12:24:26;0.10;;;0.10;;
16784;SDS011;8509;52.178;5.404;2023-04-03T12:29:38;0.10;;;0.10;;
16784;SDS011;8509;52.178;5.404;2023-04-03T12:34:46;0.17;;;0.17;;
16784;SDS011;8509;52.178;5.404;2023-04-03T12:42:32;0.10;;;0.10;;
16784;SDS011;8509;52.178;5.404;2023-04-03T12:47:37;0.20;;;0.20;;
16784;SDS011;8509;52.178;5.404;2023-04-03T12:50:13;0.20;;;0.20;;
16784;SDS011;8509;52.178;5.404;2023-04-03T12:52:43;0.10;;;0.10;;
16784;SDS011;8509;52.178;5.404;2023-04-03T12:55:16;0.10;;;0.10;;
16784;SDS011;8509;52.178;5.404;2023-04-03T12:57:42;0.20;;;0.20;;
16784;SDS011;8509;52.178;5.404;2023-04-03T13:00:18;0.20;;;0.20;;
16784;SDS011;8509;52.178;5.404;2023-04-03T13:02:44;0.10;;;0.10;;
16784;SDS011;8509;52.178;5.404;2023-04-03T13:05:15;0.10;;;0.10;;
16784;SDS011;8509;52.178;5.404;2023-04-03T13:07:42;0.10;;;0.10;;
16784;SDS011;8509;52.178;5.404;2023-04-03T13:12:35;0.10;;;0.10;;
16784;SDS011;8509;52.178;5.404;2023-04-03T13:15:02;0.20;;;0.20;;
16784;SDS011;8509;52.178;5.404;2023-04-03T13:17:41;0.10;;;0.10;;
16784;SDS011;8509;52.178;5.404;2023-04-03T13:20:15;0.10;;;0.10;;
16784;SDS011;8509;52.178;5.404;2023-04-03T13:23:23;0.10;;;0.10;;
16784;SDS011;8509;52.178;5.404;2023-04-03T13:25:34;0.10;;;0.10;;
16784;SDS011;8509;52.178;5.404;2023-04-03T13:28:01;0.10;;;0.10;;
16784;SDS011;8509;52.178;5.404;2023-04-03T13:30:29;0.10;;;0.10;;
16784;SDS011;8509;52.178;5.404;2023-04-03T13:32:56;0.10;;;0.10;;
16784;SDS011;8509;52.178;5.404;2023-04-03T13:35:34;0.10;;;0.10;;
16784;SDS011;8509;52.178;5.404;2023-04-03T13:43:19;0.10;;;0.10;;
16784;SDS011;8509;52.178;5.404;2023-04-03T13:48:21;0.20;;;0.20;;
16784;SDS011;8509;52.178;5.404;2023-04-03T13:50:54;0.20;;;0.20;;
16784;SDS011;8509;52.178;5.404;2023-04-03T13:53:22;0.10;;;0.10;;
16784;SDS011;8509;52.178;5.404;2023-04-03T13:55:56;0.10;;;0.10;;
16784;SDS011;8509;52.178;5.404;2023-04-03T13:58:24;0.20;;;0.20;;
16784;SDS011;8509;52.178;5.404;2023-04-03T14:00:52;0.20;;;0.20;;
16784;SDS011;8509;52.178;5.404;2023-04-03T14:03:28;0.20;;;0.20;;
16784;SDS011;8509;52.178;5.404;2023-04-03T14:05:55;0.10;;;0.10;;
16784;SDS011;8509;52.178;5.404;2023-04-03T14:08:21;0.20;;;0.20;;
16784;SDS011;8509;52.178;5.404;2023-04-03T14:10:47;0.20;;;0.20;;
16784;SDS011;8509;52.178;5.404;2023-04-03T14:13:15;0.20;;;0.20;;
16784;SDS011;8509;52.178;5.404;2023-04-03T14:15:41;0.20;;;0.20;;
16784;SDS011;8509;52.178;5.404;2023-04-03T14:18:15;0.10;;;0.10;;
16784;SDS011;8509;52.178;5.404;2023-04-03T14:20:41;0.10;;;0.10;;
16784;SDS011;8509;52.178;5.404;2023-04-03T14:23:07;0.10;;;0.10;;
16784;SDS011;8509;52.178;5.404;2023-04-03T14:25:33;0.20;;;0.20;;
16784;SDS011;8509;52.178;5.404;2023-04-03T14:28:00;0.20;;;0.20;;
16784;SDS011;8509;52.178;5.404;2023-04-03T14:30:31;0.10;;;0.10;;
16784;SDS011;8509;52.178;5.404;2023-04-03T14:32:58;0.10;;;0.10;;
16784;SDS011;8509;52.178;5.404;2023-04-03T14:35:25;0.10;;;0.10;;
16784;SDS011;8509;52.178;5.404;2023-04-03T14:37:51;0.10;;;0.10;;
16784;SDS011;8509;52.178;5.404;2023-04-03T14:40:21;0.20;;;0.20;;
16784;SDS011;8509;52.178;5.404;2023-04-03T14:42:47;0.20;;;0.20;;
16784;SDS011;8509;52.178;5.404;2023-04-03T14:45:14;0.10;;;0.10;;
16784;SDS011;8509;52.178;5.404;2023-04-03T14:47:43;0.10;;;0.10;;
16784;SDS011;8509;52.178;5.404;2023-04-03T14:50:12;0.10;;;0.10;;
16784;SDS011;8509;52.178;5.404;2023-04-03T14:52:39;0.10;;;0.10;;
16784;SDS011;8509;52.178;5.404;2023-04-03T14:55:05;0.10;;;0.10;;
16784;SDS011;8509;52.178;5.404;2023-04-03T14:57:32;0.10;;;0.10;;
16784;SDS011;8509;52.178;5.404;2023-04-03T14:59:58;0.10;;;0.10;;
16784;SDS011;8509;52.178;5.404;2023-04-03T15:02:29;0.20;;;0.20;;
16784;SDS011;8509;52.178;5.404;2023-04-03T15:04:56;0.10;;;0.10;;
16784;SDS011;8509;52.178;5.404;2023-04-03T15:07:23;0.20;;;0.20;;
16784;SDS011;8509;52.178;5.404;2023-04-03T15:09:49;0.17;;;0.17;;
16784;SDS011;8509;52.178;5.404;2023-04-03T15:12:16;0.10;;;0.10;;
16784;SDS011;8509;52.178;5.404;2023-04-03T15:14:42;0.10;;;0.10;;
16784;SDS011;8509;52.178;5.404;2023-04-03T15:17:10;0.10;;;0.10;;
16784;SDS011;8509;52.178;5.404;2023-04-03T15:19:39;0.10;;;0.10;;
16784;SDS011;8509;52.178;5.404;2023-04-03T15:22:05;0.10;;;0.10;;
16784;SDS011;8509;52.178;5.404;2023-04-03T15:24:31;0.10;;;0.10;;
16784;SDS011;8509;52.178;5.404;2023-04-03T15:26:57;0.10;;;0.10;;
16784;SDS011;8509;52.178;5.404;2023-04-03T15:29:24;0.10;;;0.10;;
16784;SDS011;8509;52.178;5.404;2023-04-03T15:31:50;0.10;;;0.10;;
16784;SDS011;8509;52.178;5.404;2023-04-03T15:34:18;0.10;;;0.10;;
16784;SDS011;8509;52.178;5.404;2023-04-03T15:36:46;0.20;;;0.20;;
16784;SDS011;8509;52.178;5.404;2023-04-03T15:39:12;0.10;;;0.10;;
16784;SDS011;8509;52.178;5.404;2023-04-03T15:41:38;0.10;;;0.10;;
16784;SDS011;8509;52.178;5.404;2023-04-03T15:44:05;0.10;;;0.10;;
16784;SDS011;8509;52.178;5.404;2023-04-03T15:46:31;0.17;;;0.17;;
16784;SDS011;8509;52.178;5.404;2023-04-03T15:48:57;0.15;;;0.15;;
16784;SDS011;8509;52.178;5.404;2023-04-03T15:51:23;0.20;;;0.20;;
16784;SDS011;8509;52.178;5.404;2023-04-03T15:53:49;0.20;;;0.20;;
16784;SDS011;8509;52.178;5.404;2023-04-03T15:56:15;0.10;;;0.10;;
16784;SDS011;8509;52.178;5.404;2023-04-03T15:58:41;0.10;;;0.10;;
16784;SDS011;8509;52.178;5.404;2023-04-03T16:01:09;0.20;;;0.20;;
16784;SDS011;8509;52.178;5.404;2023-04-03T16:03:35;0.10;;;0.10;;
16784;SDS011;8509;52.178;5.404;2023-04-03T16:06:03;0.10;;;0.10;;
16784;SDS011;8509;52.178;5.404;2023-04-03T16:08:29;0.10;;;0.10;;
16784;SDS011;8509;52.178;5.404;2023-04-03T16:10:55;0.10;;;0.10;;
16784;SDS011;8509;52.178;5.404;2023-04-03T16:13:21;0.10;;;0.10;;
16784;SDS011;8509;52.178;5.404;2023-04-03T16:15:48;0.13;;;0.13;;
16784;SDS011;8509;52.178;5.404;2023-04-03T16:18:14;0.10;;;0.10;;
16784;SDS011;8509;52.178;5.404;2023-04-03T16:20:40;0.10;;;0.10;;
16784;SDS011;8509;52.178;5.404;2023-04-03T16:23:08;0.20;;;0.20;;
16784;SDS011;8509;52.178;5.404;2023-04-03T16:25:34;0.10;;;0.10;;
16784;SDS011;8509;52.178;5.404;2023-04-03T16:28:02;0.10;;;0.10;;
16784;SDS011;8509;52.178;5.404;2023-04-03T16:30:28;0.20;;;0.20;;
16784;SDS011;8509;52.178;5.404;2023-04-03T16:32:54;0.10;;;0.10;;
16784;SDS011;8509;52.178;5.404;2023-04-03T16:35:20;0.10;;;0.10;;
16784;SDS011;8509;52.178;5.404;2023-04-03T16:37:47;0.20;;;0.20;;
16784;SDS011;8509;52.178;5.404;2023-04-03T16:40:13;0.20;;;0.20;;
16784;SDS011;8509;52.178;5.404;2023-04-03T16:42:38;0.10;;;0.10;;
16784;SDS011;8509;52.178;5.404;2023-04-03T16:45:05;0.10;;;0.10;;
16784;SDS011;8509;52.178;5.404;2023-04-03T16:47:32;0.10;;;0.10;;
16784;SDS011;8509;52.178;5.404;2023-04-03T16:49:58;0.10;;;0.10;;
16784;SDS011;8509;52.178;5.404;2023-04-03T16:52:24;0.10;;;0.10;;
16784;SDS011;8509;52.178;5.404;2023-04-03T16:54:50;0.13;;;0.13;;
16784;SDS011;8509;52.178;5.404;2023-04-03T16:57:20;0.10;;;0.10;;